Main page
METAR-TAF:

METAR-TAF

Airports :

Jeddah, Saudi Arabia

King Abdulaziz International Airport

latitude: 21-42N, longitude: 039-11E, elevation: 15 m

Current weather observation

The report was made 31 minutes ago, at 20:00 UTC
Wind 7 kt from the North/Northeast
Temperature 30°C
Humidity 62%
Pressure 1005 hPa
Visibility 10 km or more
no clouds below 1500 m and no cumulonimbus

METAR: OEJN 232000Z 02007KT CAVOK 30/22 Q1005 NOSIG

Time: 23:31 (20:31 UTC)

Forecast

The report was made 3 hours and 31 minutes ago, at 17:00 UTC
Forecast valid from 23 at 18 UTC to 24 at 24 UTC
Wind 8 kt from the North
Visibility: 7000 m
Clear sky
Becoming
from 24 at 06 UTC to 24 at 08 UTC
Wind 8 kt from the West/Northwest with gusts up to 18 kt

TAF: OEJN 231700Z 2318/2424 36008KT 7000 SKC BECMG 2406/2408 30008G18KT

Weather observations and forecasts of more than 4000 airports (METAR and TAF reports).

The available stations are represented by yellow and red dots on the map.

Hover mouse over dot to see the name of the station.

Then click to see weather observations and forecasts.

To change the map : click on the green buttons with a black cross to zoom in, on the green button with a dash to zoom out, or on the green arrows for adjacent maps.


METAR-TAF: